RJTH(METAR)
05/21 17:00
RJTH 210800Z 07012KT 7000 RA FEW010 SCT020 BKN035 16/16 Q1006 RMK
A2973=
戻る
トップページへ戻る
IMOC Co,.Ltd.